sensor_id;sensor_type;location;lat;lon;timestamp;P1;durP1;ratioP1;P2;durP2;ratioP2
10313;SDS011;5202;49.138;10.090;2023-07-29T00:01:02;2.25;;;1.60;;
10313;SDS011;5202;49.138;10.090;2023-07-29T00:03:31;3.78;;;2.00;;
10313;SDS011;5202;49.138;10.090;2023-07-29T00:05:59;3.72;;;2.10;;
10313;SDS011;5202;49.138;10.090;2023-07-29T00:08:34;4.93;;;2.75;;
10313;SDS011;5202;49.138;10.090;2023-07-29T00:11:04;2.80;;;2.60;;
10313;SDS011;5202;49.138;10.090;2023-07-29T00:13:33;4.75;;;2.25;;
10313;SDS011;5202;49.138;10.090;2023-07-29T00:16:01;3.03;;;2.70;;
10313;SDS011;5202;49.138;10.090;2023-07-29T00:18:30;3.17;;;2.45;;
10313;SDS011;5202;49.138;10.090;2023-07-29T00:20:59;2.50;;;2.22;;
10313;SDS011;5202;49.138;10.090;2023-07-29T00:23:27;2.90;;;2.70;;
10313;SDS011;5202;49.138;10.090;2023-07-29T00:25:56;2.70;;;2.42;;
10313;SDS011;5202;49.138;10.090;2023-07-29T00:28:26;5.70;;;2.53;;
10313;SDS011;5202;49.138;10.090;2023-07-29T00:30:55;2.40;;;2.20;;
10313;SDS011;5202;49.138;10.090;2023-07-29T00:33:23;3.45;;;2.40;;
10313;SDS011;5202;49.138;10.090;2023-07-29T00:35:52;3.42;;;2.55;;
10313;SDS011;5202;49.138;10.090;2023-07-29T00:38:20;2.97;;;2.60;;
10313;SDS011;5202;49.138;10.090;2023-07-29T00:40:49;5.22;;;2.95;;
10313;SDS011;5202;49.138;10.090;2023-07-29T00:43:17;6.10;;;2.63;;
10313;SDS011;5202;49.138;10.090;2023-07-29T00:45:47;4.72;;;3.00;;
10313;SDS011;5202;49.138;10.090;2023-07-29T00:48:15;5.50;;;3.47;;
10313;SDS011;5202;49.138;10.090;2023-07-29T00:50:44;4.72;;;2.80;;
10313;SDS011;5202;49.138;10.090;2023-07-29T00:53:12;4.78;;;3.47;;
10313;SDS011;5202;49.138;10.090;2023-07-29T00:55:41;4.90;;;3.33;;
10313;SDS011;5202;49.138;10.090;2023-07-29T00:58:10;6.13;;;3.67;;
10313;SDS011;5202;49.138;10.090;2023-07-29T01:00:38;6.32;;;3.80;;
10313;SDS011;5202;49.138;10.090;2023-07-29T01:03:08;5.43;;;3.40;;
10313;SDS011;5202;49.138;10.090;2023-07-29T01:05:39;6.45;;;4.00;;
10313;SDS011;5202;49.138;10.090;2023-07-29T01:08:20;5.30;;;4.50;;
10313;SDS011;5202;49.138;10.090;2023-07-29T01:10:58;6.25;;;4.38;;
10313;SDS011;5202;49.138;10.090;2023-07-29T01:13:42;5.30;;;3.90;;
10313;SDS011;5202;49.138;10.090;2023-07-29T01:16:20;5.75;;;3.88;;
10313;SDS011;5202;49.138;10.090;2023-07-29T01:18:56;9.90;;;3.78;;
10313;SDS011;5202;49.138;10.090;2023-07-29T01:21:31;3.70;;;3.17;;
10313;SDS011;5202;49.138;10.090;2023-07-29T01:24:02;6.45;;;4.05;;
10313;SDS011;5202;49.138;10.090;2023-07-29T01:26:31;5.22;;;4.15;;
10313;SDS011;5202;49.138;10.090;2023-07-29T01:29:02;6.20;;;4.22;;
10313;SDS011;5202;49.138;10.090;2023-07-29T01:31:31;10.45;;;4.35;;
10313;SDS011;5202;49.138;10.090;2023-07-29T01:34:04;5.60;;;4.05;;
10313;SDS011;5202;49.138;10.090;2023-07-29T01:36:39;6.63;;;4.03;;
10313;SDS011;5202;49.138;10.090;2023-07-29T01:39:14;5.93;;;3.92;;
10313;SDS011;5202;49.138;10.090;2023-07-29T01:41:44;7.68;;;4.32;;
10313;SDS011;5202;49.138;10.090;2023-07-29T01:44:13;5.60;;;3.65;;
10313;SDS011;5202;49.138;10.090;2023-07-29T01:46:43;5.65;;;3.28;;
10313;SDS011;5202;49.138;10.090;2023-07-29T01:49:12;6.15;;;3.30;;
10313;SDS011;5202;49.138;10.090;2023-07-29T01:51:40;7.28;;;3.55;;
10313;SDS011;5202;49.138;10.090;2023-07-29T01:54:10;3.92;;;3.45;;
10313;SDS011;5202;49.138;10.090;2023-07-29T01:56:40;4.15;;;2.85;;
10313;SDS011;5202;49.138;10.090;2023-07-29T01:59:08;4.30;;;2.67;;
10313;SDS011;5202;49.138;10.090;2023-07-29T02:01:37;6.25;;;3.10;;
10313;SDS011;5202;49.138;10.090;2023-07-29T02:04:05;3.42;;;2.88;;
10313;SDS011;5202;49.138;10.090;2023-07-29T02:06:33;6.50;;;3.35;;
10313;SDS011;5202;49.138;10.090;2023-07-29T02:09:02;5.65;;;2.60;;
10313;SDS011;5202;49.138;10.090;2023-07-29T02:11:31;6.97;;;2.95;;
10313;SDS011;5202;49.138;10.090;2023-07-29T02:14:01;6.60;;;3.20;;
10313;SDS011;5202;49.138;10.090;2023-07-29T02:16:29;5.63;;;2.63;;
10313;SDS011;5202;49.138;10.090;2023-07-29T02:18:59;5.45;;;3.15;;
10313;SDS011;5202;49.138;10.090;2023-07-29T02:21:28;2.78;;;2.58;;
10313;SDS011;5202;49.138;10.090;2023-07-29T02:23:56;3.97;;;3.05;;
10313;SDS011;5202;49.138;10.090;2023-07-29T02:26:24;2.97;;;2.67;;
10313;SDS011;5202;49.138;10.090;2023-07-29T02:28:52;4.90;;;3.10;;
10313;SDS011;5202;49.138;10.090;2023-07-29T02:31:23;4.68;;;2.67;;
10313;SDS011;5202;49.138;10.090;2023-07-29T02:33:52;6.15;;;3.10;;
10313;SDS011;5202;49.138;10.090;2023-07-29T02:36:22;3.38;;;2.72;;
10313;SDS011;5202;49.138;10.090;2023-07-29T02:38:50;4.65;;;2.60;;
10313;SDS011;5202;49.138;10.090;2023-07-29T02:41:19;4.13;;;2.33;;
10313;SDS011;5202;49.138;10.090;2023-07-29T02:43:48;5.43;;;2.95;;
10313;SDS011;5202;49.138;10.090;2023-07-29T02:46:17;4.82;;;2.53;;
10313;SDS011;5202;49.138;10.090;2023-07-29T02:48:47;3.72;;;2.58;;
10313;SDS011;5202;49.138;10.090;2023-07-29T02:51:15;6.75;;;3.05;;
10313;SDS011;5202;49.138;10.090;2023-07-29T02:53:44;5.13;;;2.63;;
10313;SDS011;5202;49.138;10.090;2023-07-29T02:56:12;4.45;;;3.10;;
10313;SDS011;5202;49.138;10.090;2023-07-29T02:58:40;4.10;;;2.25;;
10313;SDS011;5202;49.138;10.090;2023-07-29T03:01:09;4.90;;;2.50;;
10313;SDS011;5202;49.138;10.090;2023-07-29T03:03:37;6.38;;;2.65;;
10313;SDS011;5202;49.138;10.090;2023-07-29T03:06:08;8.93;;;2.08;;
10313;SDS011;5202;49.138;10.090;2023-07-29T03:08:38;3.55;;;2.20;;
10313;SDS011;5202;49.138;10.090;2023-07-29T03:11:08;4.13;;;2.30;;
10313;SDS011;5202;49.138;10.090;2023-07-29T03:13:40;3.28;;;2.00;;
10313;SDS011;5202;49.138;10.090;2023-07-29T03:16:12;4.40;;;2.28;;
10313;SDS011;5202;49.138;10.090;2023-07-29T03:18:49;3.38;;;2.28;;
10313;SDS011;5202;49.138;10.090;2023-07-29T03:21:19;3.35;;;2.30;;
10313;SDS011;5202;49.138;10.090;2023-07-29T03:23:47;4.60;;;2.20;;
10313;SDS011;5202;49.138;10.090;2023-07-29T03:26:16;5.00;;;2.20;;
10313;SDS011;5202;49.138;10.090;2023-07-29T03:28:44;4.97;;;1.85;;
10313;SDS011;5202;49.138;10.090;2023-07-29T03:31:13;2.60;;;2.00;;
10313;SDS011;5202;49.138;10.090;2023-07-29T03:33:41;4.38;;;1.83;;
10313;SDS011;5202;49.138;10.090;2023-07-29T03:36:10;3.10;;;1.80;;
10313;SDS011;5202;49.138;10.090;2023-07-29T03:38:40;2.13;;;1.73;;
10313;SDS011;5202;49.138;10.090;2023-07-29T03:41:08;4.95;;;1.75;;
10313;SDS011;5202;49.138;10.090;2023-07-29T03:43:37;2.45;;;1.40;;
10313;SDS011;5202;49.138;10.090;2023-07-29T03:46:05;2.22;;;1.52;;
10313;SDS011;5202;49.138;10.090;2023-07-29T03:48:39;5.30;;;1.50;;
10313;SDS011;5202;49.138;10.090;2023-07-29T03:51:07;4.50;;;1.48;;
10313;SDS011;5202;49.138;10.090;2023-07-29T03:53:35;3.60;;;1.83;;
10313;SDS011;5202;49.138;10.090;2023-07-29T03:56:05;6.05;;;1.65;;
10313;SDS011;5202;49.138;10.090;2023-07-29T03:58:34;7.28;;;1.65;;
10313;SDS011;5202;49.138;10.090;2023-07-29T04:01:02;10.80;;;1.48;;
10313;SDS011;5202;49.138;10.090;2023-07-29T04:03:33;2.22;;;1.30;;
10313;SDS011;5202;49.138;10.090;2023-07-29T04:06:02;7.07;;;1.70;;
10313;SDS011;5202;49.138;10.090;2023-07-29T04:08:30;3.92;;;1.60;;
10313;SDS011;5202;49.138;10.090;2023-07-29T04:10:59;3.20;;;1.83;;
10313;SDS011;5202;49.138;10.090;2023-07-29T04:13:29;2.67;;;1.50;;
10313;SDS011;5202;49.138;10.090;2023-07-29T04:15:57;3.47;;;1.20;;
10313;SDS011;5202;49.138;10.090;2023-07-29T04:18:26;3.15;;;1.40;;
10313;SDS011;5202;49.138;10.090;2023-07-29T04:20:55;1.58;;;1.48;;
10313;SDS011;5202;49.138;10.090;2023-07-29T04:23:23;3.70;;;1.70;;
10313;SDS011;5202;49.138;10.090;2023-07-29T04:25:52;1.92;;;1.33;;
10313;SDS011;5202;49.138;10.090;2023-07-29T04:28:20;2.78;;;1.48;;
10313;SDS011;5202;49.138;10.090;2023-07-29T04:30:50;2.58;;;1.45;;
10313;SDS011;5202;49.138;10.090;2023-07-29T04:33:18;1.70;;;1.60;;
10313;SDS011;5202;49.138;10.090;2023-07-29T04:35:47;3.08;;;1.60;;
10313;SDS011;5202;49.138;10.090;2023-07-29T04:38:15;1.50;;;1.40;;
10313;SDS011;5202;49.138;10.090;2023-07-29T04:40:44;3.83;;;1.20;;
10313;SDS011;5202;49.138;10.090;2023-07-29T04:43:13;1.60;;;1.50;;
10313;SDS011;5202;49.138;10.090;2023-07-29T04:45:42;1.27;;;1.17;;
10313;SDS011;5202;49.138;10.090;2023-07-29T04:48:12;2.63;;;1.30;;
10313;SDS011;5202;49.138;10.090;2023-07-29T04:50:41;3.45;;;1.50;;
10313;SDS011;5202;49.138;10.090;2023-07-29T04:53:09;1.35;;;1.25;;
10313;SDS011;5202;49.138;10.090;2023-07-29T04:55:38;3.35;;;1.60;;
10313;SDS011;5202;49.138;10.090;2023-07-29T04:58:08;2.13;;;1.30;;
10313;SDS011;5202;49.138;10.090;2023-07-29T05:00:37;1.40;;;1.30;;
10313;SDS011;5202;49.138;10.090;2023-07-29T05:03:05;1.83;;;1.50;;
10313;SDS011;5202;49.138;10.090;2023-07-29T05:05:35;3.50;;;1.40;;
10313;SDS011;5202;49.138;10.090;2023-07-29T05:08:03;3.10;;;1.30;;
10313;SDS011;5202;49.138;10.090;2023-07-29T05:10:32;1.88;;;1.30;;
10313;SDS011;5202;49.138;10.090;2023-07-29T05:13:02;1.90;;;1.55;;
10313;SDS011;5202;49.138;10.090;2023-07-29T05:15:30;2.80;;;1.40;;
10313;SDS011;5202;49.138;10.090;2023-07-29T05:17:59;3.13;;;1.35;;
10313;SDS011;5202;49.138;10.090;2023-07-29T05:20:27;2.05;;;1.40;;
10313;SDS011;5202;49.138;10.090;2023-07-29T05:22:57;2.22;;;1.48;;
10313;SDS011;5202;49.138;10.090;2023-07-29T05:25:25;2.78;;;1.60;;
10313;SDS011;5202;49.138;10.090;2023-07-29T05:27:54;1.70;;;1.60;;
10313;SDS011;5202;49.138;10.090;2023-07-29T05:30:23;2.00;;;1.80;;
10313;SDS011;5202;49.138;10.090;2023-07-29T05:32:53;2.78;;;1.50;;
10313;SDS011;5202;49.138;10.090;2023-07-29T05:35:21;5.07;;;1.50;;
10313;SDS011;5202;49.138;10.090;2023-07-29T05:37:50;2.22;;;1.75;;
10313;SDS011;5202;49.138;10.090;2023-07-29T05:40:20;3.08;;;1.85;;
10313;SDS011;5202;49.138;10.090;2023-07-29T05:42:49;4.10;;;1.67;;
10313;SDS011;5202;49.138;10.090;2023-07-29T05:45:17;3.30;;;1.58;;
10313;SDS011;5202;49.138;10.090;2023-07-29T05:47:46;3.20;;;1.70;;
10313;SDS011;5202;49.138;10.090;2023-07-29T05:50:14;6.63;;;2.78;;
10313;SDS011;5202;49.138;10.090;2023-07-29T05:52:43;4.05;;;2.40;;
10313;SDS011;5202;49.138;10.090;2023-07-29T05:55:11;3.63;;;1.98;;
10313;SDS011;5202;49.138;10.090;2023-07-29T05:57:41;3.58;;;2.10;;
10313;SDS011;5202;49.138;10.090;2023-07-29T06:00:10;7.28;;;1.90;;
10313;SDS011;5202;49.138;10.090;2023-07-29T06:02:39;2.20;;;1.58;;
10313;SDS011;5202;49.138;10.090;2023-07-29T06:05:13;2.60;;;2.20;;
10313;SDS011;5202;49.138;10.090;2023-07-29T06:07:41;3.92;;;1.98;;
10313;SDS011;5202;49.138;10.090;2023-07-29T06:10:12;5.18;;;1.90;;
10313;SDS011;5202;49.138;10.090;2023-07-29T06:12:45;2.33;;;1.50;;
10313;SDS011;5202;49.138;10.090;2023-07-29T06:15:14;5.05;;;1.75;;
10313;SDS011;5202;49.138;10.090;2023-07-29T06:17:43;4.47;;;1.90;;
10313;SDS011;5202;49.138;10.090;2023-07-29T06:20:11;4.20;;;2.05;;
10313;SDS011;5202;49.138;10.090;2023-07-29T06:22:40;3.33;;;1.75;;
10313;SDS011;5202;49.138;10.090;2023-07-29T06:25:09;3.42;;;1.75;;
10313;SDS011;5202;49.138;10.090;2023-07-29T06:27:37;2.00;;;1.45;;
10313;SDS011;5202;49.138;10.090;2023-07-29T06:30:07;2.72;;;1.88;;
10313;SDS011;5202;49.138;10.090;2023-07-29T06:32:36;1.85;;;1.60;;
10313;SDS011;5202;49.138;10.090;2023-07-29T06:35:05;2.92;;;1.95;;
10313;SDS011;5202;49.138;10.090;2023-07-29T06:37:34;2.88;;;1.90;;
10313;SDS011;5202;49.138;10.090;2023-07-29T06:40:03;2.75;;;1.70;;
10313;SDS011;5202;49.138;10.090;2023-07-29T06:42:32;1.88;;;1.52;;
10313;SDS011;5202;49.138;10.090;2023-07-29T06:45:01;1.80;;;1.70;;
10313;SDS011;5202;49.138;10.090;2023-07-29T06:47:31;2.78;;;1.80;;
10313;SDS011;5202;49.138;10.090;2023-07-29T06:49:59;3.85;;;2.05;;
10313;SDS011;5202;49.138;10.090;2023-07-29T06:52:28;2.97;;;1.80;;
10313;SDS011;5202;49.138;10.090;2023-07-29T06:54:56;3.08;;;1.85;;
10313;SDS011;5202;49.138;10.090;2023-07-29T06:57:24;3.45;;;2.00;;
10313;SDS011;5202;49.138;10.090;2023-07-29T06:59:53;3.88;;;1.73;;
10313;SDS011;5202;49.138;10.090;2023-07-29T07:02:21;3.03;;;1.60;;
10313;SDS011;5202;49.138;10.090;2023-07-29T07:04:51;2.17;;;1.90;;
10313;SDS011;5202;49.138;10.090;2023-07-29T07:07:19;2.90;;;2.20;;
10313;SDS011;5202;49.138;10.090;2023-07-29T07:09:47;2.17;;;1.70;;
10313;SDS011;5202;49.138;10.090;2023-07-29T07:12:16;2.35;;;1.88;;
10313;SDS011;5202;49.138;10.090;2023-07-29T07:14:44;4.28;;;2.05;;
10313;SDS011;5202;49.138;10.090;2023-07-29T07:17:13;8.65;;;2.28;;
10313;SDS011;5202;49.138;10.090;2023-07-29T07:19:41;4.75;;;1.80;;
10313;SDS011;5202;49.138;10.090;2023-07-29T07:22:11;3.72;;;1.90;;
10313;SDS011;5202;49.138;10.090;2023-07-29T07:24:39;3.13;;;1.60;;
10313;SDS011;5202;49.138;10.090;2023-07-29T07:27:07;3.10;;;1.90;;
10313;SDS011;5202;49.138;10.090;2023-07-29T07:29:36;1.95;;;1.83;;
10313;SDS011;5202;49.138;10.090;2023-07-29T07:32:04;5.30;;;1.70;;
10313;SDS011;5202;49.138;10.090;2023-07-29T07:34:33;1.90;;;1.70;;
10313;SDS011;5202;49.138;10.090;2023-07-29T07:37:02;4.30;;;2.00;;
10313;SDS011;5202;49.138;10.090;2023-07-29T07:39:32;2.70;;;1.90;;
10313;SDS011;5202;49.138;10.090;2023-07-29T07:42:01;2.20;;;2.00;;
10313;SDS011;5202;49.138;10.090;2023-07-29T07:44:29;2.65;;;1.80;;
10313;SDS011;5202;49.138;10.090;2023-07-29T07:46:57;2.35;;;1.80;;
10313;SDS011;5202;49.138;10.090;2023-07-29T07:49:30;2.30;;;2.10;;
10313;SDS011;5202;49.138;10.090;2023-07-29T07:51:58;3.25;;;1.80;;
10313;SDS011;5202;49.138;10.090;2023-07-29T07:54:26;1.80;;;1.70;;
10313;SDS011;5202;49.138;10.090;2023-07-29T07:56:56;2.90;;;2.00;;
10313;SDS011;5202;49.138;10.090;2023-07-29T07:59:25;3.45;;;1.73;;
10313;SDS011;5202;49.138;10.090;2023-07-29T08:01:53;2.17;;;1.85;;
10313;SDS011;5202;49.138;10.090;2023-07-29T08:04:22;3.30;;;1.83;;
10313;SDS011;5202;49.138;10.090;2023-07-29T08:06:51;3.55;;;1.88;;
10313;SDS011;5202;49.138;10.090;2023-07-29T08:09:20;2.10;;;1.80;;
10313;SDS011;5202;49.138;10.090;2023-07-29T08:11:48;4.30;;;1.95;;
10313;SDS011;5202;49.138;10.090;2023-07-29T08:14:18;3.28;;;2.00;;
10313;SDS011;5202;49.138;10.090;2023-07-29T08:16:46;3.75;;;2.13;;
10313;SDS011;5202;49.138;10.090;2023-07-29T08:19:14;2.72;;;2.10;;
10313;SDS011;5202;49.138;10.090;2023-07-29T08:21:45;1.98;;;1.77;;
10313;SDS011;5202;49.138;10.090;2023-07-29T08:24:13;3.92;;;1.80;;
10313;SDS011;5202;49.138;10.090;2023-07-29T08:26:42;5.07;;;2.20;;
10313;SDS011;5202;49.138;10.090;2023-07-29T08:29:10;6.22;;;2.53;;
10313;SDS011;5202;49.138;10.090;2023-07-29T08:31:40;4.82;;;2.50;;
10313;SDS011;5202;49.138;10.090;2023-07-29T08:34:08;3.25;;;1.80;;
10313;SDS011;5202;49.138;10.090;2023-07-29T08:36:37;2.92;;;2.45;;
10313;SDS011;5202;49.138;10.090;2023-07-29T08:39:05;3.88;;;2.42;;
10313;SDS011;5202;49.138;10.090;2023-07-29T08:41:35;2.83;;;2.15;;
10313;SDS011;5202;49.138;10.090;2023-07-29T08:44:11;2.20;;;1.95;;
10313;SDS011;5202;49.138;10.090;2023-07-29T08:46:48;2.83;;;2.15;;
10313;SDS011;5202;49.138;10.090;2023-07-29T08:49:16;4.75;;;1.70;;
10313;SDS011;5202;49.138;10.090;2023-07-29T08:51:46;3.28;;;1.92;;
10313;SDS011;5202;49.138;10.090;2023-07-29T08:54:15;2.47;;;2.15;;
10313;SDS011;5202;49.138;10.090;2023-07-29T08:56:43;2.67;;;1.80;;
10313;SDS011;5202;49.138;10.090;2023-07-29T08:59:13;2.70;;;2.30;;
10313;SDS011;5202;49.138;10.090;2023-07-29T09:01:43;2.58;;;2.00;;
10313;SDS011;5202;49.138;10.090;2023-07-29T09:04:15;4.72;;;2.33;;
10313;SDS011;5202;49.138;10.090;2023-07-29T09:06:44;2.25;;;2.05;;
10313;SDS011;5202;49.138;10.090;2023-07-29T09:09:13;2.45;;;2.10;;
10313;SDS011;5202;49.138;10.090;2023-07-29T09:11:42;2.10;;;1.90;;
10313;SDS011;5202;49.138;10.090;2023-07-29T09:14:11;2.65;;;1.80;;
10313;SDS011;5202;49.138;10.090;2023-07-29T09:16:41;5.05;;;2.40;;
10313;SDS011;5202;49.138;10.090;2023-07-29T09:19:09;3.50;;;2.15;;
10313;SDS011;5202;49.138;10.090;2023-07-29T09:21:39;4.22;;;2.20;;
10313;SDS011;5202;49.138;10.090;2023-07-29T09:24:08;1.73;;;1.60;;
10313;SDS011;5202;49.138;10.090;2023-07-29T09:26:37;2.50;;;2.30;;
10313;SDS011;5202;49.138;10.090;2023-07-29T09:29:06;2.53;;;2.05;;
10313;SDS011;5202;49.138;10.090;2023-07-29T09:31:34;1.92;;;1.67;;
10313;SDS011;5202;49.138;10.090;2023-07-29T09:34:04;2.05;;;1.77;;
10313;SDS011;5202;49.138;10.090;2023-07-29T09:36:33;1.80;;;1.60;;
10313;SDS011;5202;49.138;10.090;2023-07-29T09:39:10;2.00;;;1.80;;
10313;SDS011;5202;49.138;10.090;2023-07-29T09:41:39;2.15;;;1.95;;
10313;SDS011;5202;49.138;10.090;2023-07-29T09:44:08;1.90;;;1.60;;
10313;SDS011;5202;49.138;10.090;2023-07-29T09:46:39;1.88;;;1.60;;
10313;SDS011;5202;49.138;10.090;2023-07-29T09:49:07;3.65;;;1.92;;
10313;SDS011;5202;49.138;10.090;2023-07-29T09:51:37;3.40;;;2.22;;
10313;SDS011;5202;49.138;10.090;2023-07-29T09:54:08;2.58;;;1.70;;
10313;SDS011;5202;49.138;10.090;2023-07-29T09:56:41;1.60;;;1.50;;
10313;SDS011;5202;49.138;10.090;2023-07-29T09:59:11;4.03;;;2.00;;
10313;SDS011;5202;49.138;10.090;2023-07-29T10:01:39;2.10;;;1.80;;
10313;SDS011;5202;49.138;10.090;2023-07-29T10:04:08;3.97;;;2.30;;
10313;SDS011;5202;49.138;10.090;2023-07-29T10:06:39;2.00;;;1.80;;
10313;SDS011;5202;49.138;10.090;2023-07-29T10:09:12;2.13;;;1.70;;
10313;SDS011;5202;49.138;10.090;2023-07-29T10:11:41;1.70;;;1.60;;
10313;SDS011;5202;49.138;10.090;2023-07-29T10:14:09;4.13;;;1.45;;
10313;SDS011;5202;49.138;10.090;2023-07-29T10:16:39;1.80;;;1.65;;
10313;SDS011;5202;49.138;10.090;2023-07-29T10:19:09;2.15;;;1.80;;
10313;SDS011;5202;49.138;10.090;2023-07-29T10:21:39;3.08;;;1.40;;
10313;SDS011;5202;49.138;10.090;2023-07-29T10:24:14;1.80;;;1.70;;
10313;SDS011;5202;49.138;10.090;2023-07-29T10:26:46;3.45;;;1.70;;
10313;SDS011;5202;49.138;10.090;2023-07-29T10:32:41;5.10;;;1.60;;
10313;SDS011;5202;49.138;10.090;2023-07-29T10:35:12;2.25;;;1.60;;
10313;SDS011;5202;49.138;10.090;2023-07-29T10:37:41;1.95;;;1.80;;
10313;SDS011;5202;49.138;10.090;2023-07-29T10:40:13;1.67;;;1.58;;
10313;SDS011;5202;49.138;10.090;2023-07-29T10:42:59;1.92;;;1.58;;
10313;SDS011;5202;49.138;10.090;2023-07-29T10:45:36;4.00;;;2.20;;
10313;SDS011;5202;49.138;10.090;2023-07-29T10:48:06;1.50;;;1.40;;
10313;SDS011;5202;49.138;10.090;2023-07-29T10:50:38;2.13;;;1.67;;
10313;SDS011;5202;49.138;10.090;2023-07-29T10:53:07;2.10;;;1.90;;
10313;SDS011;5202;49.138;10.090;2023-07-29T10:55:37;3.13;;;1.95;;
10313;SDS011;5202;49.138;10.090;2023-07-29T10:58:12;3.28;;;2.10;;
10313;SDS011;5202;49.138;10.090;2023-07-29T11:00:44;2.97;;;2.00;;
10313;SDS011;5202;49.138;10.090;2023-07-29T11:03:13;4.88;;;1.73;;
10313;SDS011;5202;49.138;10.090;2023-07-29T11:05:44;3.22;;;2.20;;
10313;SDS011;5202;49.138;10.090;2023-07-29T11:08:22;11.02;;;2.30;;
10313;SDS011;5202;49.138;10.090;2023-07-29T11:11:01;1.90;;;1.80;;
10313;SDS011;5202;49.138;10.090;2023-07-29T11:13:32;2.88;;;2.17;;
10313;SDS011;5202;49.138;10.090;2023-07-29T11:16:03;3.50;;;1.85;;
10313;SDS011;5202;49.138;10.090;2023-07-29T11:18:34;2.97;;;1.73;;
10313;SDS011;5202;49.138;10.090;2023-07-29T11:21:03;1.92;;;1.83;;
10313;SDS011;5202;49.138;10.090;2023-07-29T11:23:32;1.63;;;1.52;;
10313;SDS011;5202;49.138;10.090;2023-07-29T11:26:04;4.47;;;2.28;;
10313;SDS011;5202;49.138;10.090;2023-07-29T11:28:37;1.83;;;1.70;;
10313;SDS011;5202;49.138;10.090;2023-07-29T11:31:07;1.60;;;1.50;;
10313;SDS011;5202;49.138;10.090;2023-07-29T11:33:38;1.85;;;1.55;;
10313;SDS011;5202;49.138;10.090;2023-07-29T11:36:16;3.40;;;1.70;;
10313;SDS011;5202;49.138;10.090;2023-07-29T11:38:46;2.30;;;2.10;;
10313;SDS011;5202;49.138;10.090;2023-07-29T11:41:18;1.92;;;1.60;;
10313;SDS011;5202;49.138;10.090;2023-07-29T11:43:48;1.48;;;1.38;;
10313;SDS011;5202;49.138;10.090;2023-07-29T11:46:20;1.83;;;1.63;;
10313;SDS011;5202;49.138;10.090;2023-07-29T11:48:50;1.70;;;1.55;;
10313;SDS011;5202;49.138;10.090;2023-07-29T11:51:18;1.73;;;1.63;;
10313;SDS011;5202;49.138;10.090;2023-07-29T11:53:47;1.50;;;1.40;;
10313;SDS011;5202;49.138;10.090;2023-07-29T11:56:18;3.20;;;1.40;;
10313;SDS011;5202;49.138;10.090;2023-07-29T11:58:47;1.67;;;1.27;;
10313;SDS011;5202;49.138;10.090;2023-07-29T12:01:16;1.83;;;1.55;;
10313;SDS011;5202;49.138;10.090;2023-07-29T12:03:45;1.88;;;1.45;;
10313;SDS011;5202;49.138;10.090;2023-07-29T12:06:14;2.03;;;1.60;;
10313;SDS011;5202;49.138;10.090;2023-07-29T12:08:42;1.65;;;1.55;;
10313;SDS011;5202;49.138;10.090;2023-07-29T12:11:11;2.08;;;1.80;;
10313;SDS011;5202;49.138;10.090;2023-07-29T12:13:42;1.65;;;1.55;;
10313;SDS011;5202;49.138;10.090;2023-07-29T12:16:15;1.88;;;1.50;;
10313;SDS011;5202;49.138;10.090;2023-07-29T12:18:44;1.83;;;1.55;;
10313;SDS011;5202;49.138;10.090;2023-07-29T12:21:15;1.48;;;1.35;;
10313;SDS011;5202;49.138;10.090;2023-07-29T12:23:44;1.70;;;1.30;;
10313;SDS011;5202;49.138;10.090;2023-07-29T12:26:13;1.75;;;1.50;;
10313;SDS011;5202;49.138;10.090;2023-07-29T12:28:46;1.40;;;1.30;;
10313;SDS011;5202;49.138;10.090;2023-07-29T12:31:14;1.50;;;1.40;;
10313;SDS011;5202;49.138;10.090;2023-07-29T12:33:43;2.33;;;1.25;;
10313;SDS011;5202;49.138;10.090;2023-07-29T12:36:11;1.55;;;1.20;;
10313;SDS011;5202;49.138;10.090;2023-07-29T12:38:42;1.52;;;1.17;;
10313;SDS011;5202;49.138;10.090;2023-07-29T12:41:10;1.85;;;0.90;;
10313;SDS011;5202;49.138;10.090;2023-07-29T12:43:39;1.25;;;1.15;;
10313;SDS011;5202;49.138;10.090;2023-07-29T12:46:08;1.02;;;0.90;;
10313;SDS011;5202;49.138;10.090;2023-07-29T12:48:37;5.03;;;1.50;;
10313;SDS011;5202;49.138;10.090;2023-07-29T12:51:05;2.20;;;1.15;;
10313;SDS011;5202;49.138;10.090;2023-07-29T12:53:33;1.23;;;1.13;;
10313;SDS011;5202;49.138;10.090;2023-07-29T12:56:02;1.15;;;0.95;;
10313;SDS011;5202;49.138;10.090;2023-07-29T12:58:30;2.05;;;1.10;;
10313;SDS011;5202;49.138;10.090;2023-07-29T13:00:58;1.02;;;0.93;;
10313;SDS011;5202;49.138;10.090;2023-07-29T13:03:28;1.60;;;1.15;;
10313;SDS011;5202;49.138;10.090;2023-07-29T13:05:57;2.70;;;1.20;;
10313;SDS011;5202;49.138;10.090;2023-07-29T13:08:25;1.20;;;1.10;;
10313;SDS011;5202;49.138;10.090;2023-07-29T13:10:54;1.75;;;1.00;;
10313;SDS011;5202;49.138;10.090;2023-07-29T13:13:22;2.55;;;1.20;;
10313;SDS011;5202;49.138;10.090;2023-07-29T13:15:51;2.35;;;1.20;;
10313;SDS011;5202;49.138;10.090;2023-07-29T13:18:19;2.13;;;1.40;;
10313;SDS011;5202;49.138;10.090;2023-07-29T13:20:49;1.52;;;1.30;;
10313;SDS011;5202;49.138;10.090;2023-07-29T13:23:18;1.95;;;1.30;;
10313;SDS011;5202;49.138;10.090;2023-07-29T13:25:46;1.45;;;1.15;;
10313;SDS011;5202;49.138;10.090;2023-07-29T13:28:15;3.53;;;1.50;;
10313;SDS011;5202;49.138;10.090;2023-07-29T13:30:44;1.40;;;1.30;;
10313;SDS011;5202;49.138;10.090;2023-07-29T13:33:12;2.55;;;1.85;;
10313;SDS011;5202;49.138;10.090;2023-07-29T13:35:41;6.20;;;3.58;;
10313;SDS011;5202;49.138;10.090;2023-07-29T13:38:10;10.93;;;6.45;;
10313;SDS011;5202;49.138;10.090;2023-07-29T13:40:39;9.13;;;3.88;;
10313;SDS011;5202;49.138;10.090;2023-07-29T13:43:07;2.70;;;2.20;;
10313;SDS011;5202;49.138;10.090;2023-07-29T13:45:35;1.58;;;1.40;;
10313;SDS011;5202;49.138;10.090;2023-07-29T13:48:04;3.65;;;1.60;;
10313;SDS011;5202;49.138;10.090;2023-07-29T13:50:32;1.63;;;1.35;;
10313;SDS011;5202;49.138;10.090;2023-07-29T13:53:00;1.50;;;1.30;;
10313;SDS011;5202;49.138;10.090;2023-07-29T13:55:30;3.28;;;1.50;;
10313;SDS011;5202;49.138;10.090;2023-07-29T13:57:59;1.80;;;1.55;;
10313;SDS011;5202;49.138;10.090;2023-07-29T14:00:27;1.45;;;1.30;;
10313;SDS011;5202;49.138;10.090;2023-07-29T14:02:55;1.98;;;1.40;;
10313;SDS011;5202;49.138;10.090;2023-07-29T14:05:23;1.52;;;1.35;;
10313;SDS011;5202;49.138;10.090;2023-07-29T14:07:54;1.52;;;1.42;;
10313;SDS011;5202;49.138;10.090;2023-07-29T14:10:22;1.75;;;1.40;;
10313;SDS011;5202;49.138;10.090;2023-07-29T14:12:53;3.55;;;1.63;;
10313;SDS011;5202;49.138;10.090;2023-07-29T14:15:21;1.60;;;1.48;;
10313;SDS011;5202;49.138;10.090;2023-07-29T14:17:50;1.90;;;1.63;;
10313;SDS011;5202;49.138;10.090;2023-07-29T14:20:21;2.70;;;1.73;;
10313;SDS011;5202;49.138;10.090;2023-07-29T14:22:50;1.30;;;1.20;;
10313;SDS011;5202;49.138;10.090;2023-07-29T14:25:18;1.55;;;1.40;;
10313;SDS011;5202;49.138;10.090;2023-07-29T14:27:47;1.50;;;1.40;;
10313;SDS011;5202;49.138;10.090;2023-07-29T14:30:16;1.55;;;1.45;;
10313;SDS011;5202;49.138;10.090;2023-07-29T14:32:45;1.70;;;1.60;;
10313;SDS011;5202;49.138;10.090;2023-07-29T14:35:13;2.90;;;1.40;;
10313;SDS011;5202;49.138;10.090;2023-07-29T14:37:42;1.55;;;1.45;;
10313;SDS011;5202;49.138;10.090;2023-07-29T14:40:10;4.78;;;1.70;;
10313;SDS011;5202;49.138;10.090;2023-07-29T14:42:38;1.40;;;1.30;;
10313;SDS011;5202;49.138;10.090;2023-07-29T14:45:07;1.48;;;1.38;;
10313;SDS011;5202;49.138;10.090;2023-07-29T14:47:37;2.28;;;1.52;;
10313;SDS011;5202;49.138;10.090;2023-07-29T14:50:05;1.92;;;1.73;;
10313;SDS011;5202;49.138;10.090;2023-07-29T14:52:34;2.95;;;1.58;;
10313;SDS011;5202;49.138;10.090;2023-07-29T14:55:03;1.58;;;1.40;;
10313;SDS011;5202;49.138;10.090;2023-07-29T14:57:33;1.45;;;1.35;;
10313;SDS011;5202;49.138;10.090;2023-07-29T15:00:01;2.55;;;1.60;;
10313;SDS011;5202;49.138;10.090;2023-07-29T15:02:32;1.50;;;1.40;;
10313;SDS011;5202;49.138;10.090;2023-07-29T15:05:02;2.90;;;1.63;;